createdAt,value
2019-03-11T00:04:46.550Z,99.90
2019-03-11T00:07:17.674Z,99.90
2019-03-11T00:09:46.961Z,99.90
2019-03-11T00:12:28.535Z,99.90
2019-03-11T00:15:00.321Z,99.90
2019-03-11T00:17:30.007Z,99.90
2019-03-11T00:20:13.733Z,99.90
2019-03-11T00:22:44.651Z,99.90
2019-03-11T00:25:59.277Z,99.90
2019-03-11T00:29:28.390Z,99.90
2019-03-11T00:32:21.204Z,99.90
2019-03-11T00:35:09.756Z,99.90
2019-03-11T00:37:39.782Z,99.90
2019-03-11T00:40:09.267Z,99.90
2019-03-11T00:42:39.725Z,99.90
2019-03-11T00:45:12.576Z,99.90
2019-03-11T00:47:41.902Z,99.90
2019-03-11T00:50:11.985Z,99.90
2019-03-11T00:52:46.523Z,99.90
2019-03-11T00:55:21.945Z,99.90
2019-03-11T00:57:51.356Z,99.90
2019-03-11T01:01:01.860Z,99.90
2019-03-11T01:03:32.715Z,99.90
2019-03-11T01:06:02.985Z,99.90
2019-03-11T01:08:33.919Z,99.90
2019-03-11T01:11:04.372Z,99.90
2019-03-11T01:13:35.209Z,99.90
2019-03-11T01:16:04.703Z,99.90
2019-03-11T01:21:51.411Z,99.90
2019-03-11T01:24:20.800Z,99.90
2019-03-11T01:26:50.193Z,99.90
2019-03-11T01:29:21.943Z,99.90
2019-03-11T01:31:52.900Z,99.90
2019-03-11T01:34:24.962Z,99.90
2019-03-11T01:36:57.692Z,99.90
2019-03-11T01:39:27.047Z,99.90
2019-03-11T01:41:58.320Z,99.90
2019-03-11T01:44:27.539Z,99.90
2019-03-11T01:46:57.563Z,99.90
2019-03-11T01:49:31.048Z,99.90
2019-03-11T01:52:02.609Z,99.90
2019-03-11T01:54:31.837Z,99.90
2019-03-11T01:57:01.168Z,99.90
2019-03-11T01:59:31.752Z,99.90
2019-03-11T02:02:00.987Z,99.90
2019-03-11T02:04:34.307Z,99.90
2019-03-11T02:07:03.876Z,99.90
2019-03-11T02:09:34.164Z,99.90
2019-03-11T02:12:03.364Z,99.90
2019-03-11T02:14:32.602Z,99.90
2019-03-11T02:17:01.820Z,99.90
2019-03-11T02:19:31.331Z,99.90
2019-03-11T02:22:00.659Z,99.90
2019-03-11T02:24:29.866Z,99.90
2019-03-11T02:26:59.198Z,99.90
2019-03-11T02:29:28.461Z,99.90
2019-03-11T02:31:57.999Z,99.90
2019-03-11T02:34:27.165Z,99.90
2019-03-11T02:36:57.601Z,99.90
2019-03-11T02:39:26.890Z,99.90
2019-03-11T02:41:56.660Z,99.90
2019-03-11T02:44:26.223Z,99.90
2019-03-11T02:46:55.549Z,99.90
2019-03-11T02:49:24.980Z,99.90
2019-03-11T02:51:54.553Z,99.90
2019-03-11T02:54:24.398Z,99.90
2019-03-11T02:56:53.753Z,99.90
2019-03-11T02:59:23.116Z,99.90
2019-03-11T03:02:00.551Z,99.90
2019-03-11T03:04:46.013Z,99.90
2019-03-11T03:07:15.233Z,99.90
2019-03-11T03:09:44.578Z,99.90
2019-03-11T03:12:13.866Z,99.90
2019-03-11T03:14:43.181Z,99.90
2019-03-11T03:17:12.468Z,99.90
2019-03-11T03:19:41.877Z,99.90
2019-03-11T03:22:11.096Z,99.90
2019-03-11T03:24:40.377Z,99.90
2019-03-11T03:27:09.696Z,99.90
2019-03-11T03:29:39.004Z,99.90
2019-03-11T03:32:08.280Z,99.90
2019-03-11T03:34:38.918Z,99.90
2019-03-11T03:37:08.157Z,99.90
2019-03-11T03:39:38.637Z,99.90
2019-03-11T03:42:07.878Z,99.90
2019-03-11T03:44:37.738Z,99.90
2019-03-11T03:47:07.088Z,99.90
2019-03-11T03:49:36.388Z,99.90
2019-03-11T03:52:06.754Z,99.90
2019-03-11T03:54:36.271Z,99.90
2019-03-11T03:57:05.503Z,99.90
2019-03-11T03:59:34.792Z,99.90
2019-03-11T04:02:04.000Z,99.90
2019-03-11T04:04:33.319Z,99.90
2019-03-11T04:07:03.911Z,99.90
2019-03-11T04:09:33.230Z,99.90
2019-03-11T04:12:02.521Z,99.90
2019-03-11T04:14:33.347Z,99.90
2019-03-11T04:17:02.746Z,99.90
2019-03-11T04:19:32.175Z,99.90
2019-03-11T04:22:01.504Z,99.90
2019-03-11T04:24:31.232Z,99.90
2019-03-11T04:27:06.517Z,99.90
2019-03-11T04:29:35.723Z,99.90
2019-03-11T04:32:05.134Z,99.90
2019-03-11T04:34:36.143Z,99.90
2019-03-11T04:37:05.619Z,99.90
2019-03-11T04:39:36.407Z,99.90
2019-03-11T04:42:05.727Z,99.90
2019-03-11T04:44:34.972Z,99.90
2019-03-11T04:47:04.275Z,99.90
2019-03-11T04:49:33.514Z,99.90
2019-03-11T04:52:02.743Z,99.90
2019-03-11T04:54:32.012Z,99.90
2019-03-11T04:57:01.261Z,99.90
2019-03-11T04:59:30.923Z,99.90
2019-03-11T05:02:01.250Z,99.90
2019-03-11T05:04:30.612Z,99.90
2019-03-11T05:07:00.101Z,99.90
2019-03-11T05:09:29.489Z,99.90
2019-03-11T05:12:00.347Z,99.90
2019-03-11T05:17:06.795Z,99.90
2019-03-11T05:19:36.318Z,99.90
2019-03-11T05:22:06.370Z,99.90
2019-03-11T05:24:36.102Z,99.90
2019-03-11T05:27:05.710Z,99.90
2019-03-11T05:29:44.942Z,99.90
2019-03-11T05:32:19.735Z,99.90
2019-03-11T05:34:52.035Z,99.90
2019-03-11T05:37:21.236Z,99.90
2019-03-11T05:39:50.498Z,99.90
2019-03-11T05:42:21.060Z,99.90
2019-03-11T05:44:50.667Z,99.90
2019-03-11T05:47:21.595Z,99.90
2019-03-11T05:49:51.128Z,99.90
2019-03-11T05:53:37.855Z,99.90
2019-03-11T05:56:07.054Z,99.90
2019-03-11T05:58:36.222Z,99.90
2019-03-11T06:01:05.429Z,99.90
2019-03-11T06:03:34.971Z,99.90
2019-03-11T06:06:38.143Z,99.90
2019-03-11T06:09:09.861Z,99.90
2019-03-11T06:11:40.095Z,99.90
2019-03-11T06:14:10.426Z,99.90
2019-03-11T06:16:39.893Z,99.90
2019-03-11T06:19:10.302Z,99.90
2019-03-11T06:21:46.318Z,99.90
2019-03-11T06:24:15.829Z,99.90
2019-03-11T06:26:45.048Z,99.90
2019-03-11T06:29:14.261Z,99.90
2019-03-11T06:31:46.313Z,99.90
2019-03-11T06:34:15.725Z,99.90
2019-03-11T06:36:46.428Z,99.90
2019-03-11T06:39:18.249Z,99.90
2019-03-11T06:41:47.542Z,99.90
2019-03-11T06:44:17.607Z,99.90
2019-03-11T06:46:50.092Z,99.90
2019-03-11T06:49:20.309Z,99.90
2019-03-11T06:51:52.629Z,99.90
2019-03-11T06:54:22.111Z,99.90
2019-03-11T06:56:51.396Z,99.90
2019-03-11T06:59:20.586Z,99.90
2019-03-11T07:02:09.243Z,99.90
2019-03-11T07:04:38.363Z,99.90
2019-03-11T07:07:10.185Z,99.90
2019-03-11T07:09:39.685Z,99.90
2019-03-11T07:12:08.983Z,99.90
2019-03-11T07:14:38.157Z,99.90
2019-03-11T07:17:07.283Z,99.90
2019-03-11T07:19:36.492Z,99.90
2019-03-11T07:22:05.696Z,99.90
2019-03-11T07:24:36.321Z,99.90
2019-03-11T07:27:05.608Z,99.90
2019-03-11T07:29:34.820Z,99.90
2019-03-11T07:32:05.294Z,99.90
2019-03-11T07:34:35.625Z,99.90
2019-03-11T07:37:04.884Z,99.90
2019-03-11T07:39:34.041Z,99.90
2019-03-11T07:42:04.449Z,99.90
2019-03-11T07:44:33.600Z,99.90
2019-03-11T07:47:02.820Z,99.90
2019-03-11T07:49:32.017Z,99.90
2019-03-11T07:52:02.632Z,99.90
2019-03-11T07:54:35.770Z,99.90
2019-03-11T07:57:04.287Z,99.90
2019-03-11T07:59:33.529Z,99.90
2019-03-11T08:02:02.756Z,99.90
2019-03-11T08:04:31.932Z,99.90
2019-03-11T08:07:01.511Z,99.90
2019-03-11T08:09:37.890Z,99.90
2019-03-11T08:12:02.820Z,99.90
2019-03-11T08:14:32.029Z,99.90
2019-03-11T08:17:01.471Z,99.90
2019-03-11T08:19:31.907Z,99.90
2019-03-11T08:22:01.035Z,99.90
2019-03-11T08:24:30.160Z,99.90
2019-03-11T08:26:59.638Z,99.90
2019-03-11T08:29:29.755Z,99.90
2019-03-11T08:32:00.351Z,99.90
2019-03-11T08:34:31.684Z,99.90
2019-03-11T08:37:00.906Z,99.90
2019-03-11T08:39:31.736Z,99.90
2019-03-11T08:42:01.747Z,99.90
2019-03-11T08:44:30.944Z,99.90
2019-03-11T08:47:00.175Z,99.90
2019-03-11T08:49:29.340Z,99.90
2019-03-11T08:52:00.353Z,99.90
2019-03-11T08:54:29.792Z,99.90
2019-03-11T08:57:00.314Z,99.90
2019-03-11T08:59:31.184Z,99.90
2019-03-11T09:02:00.432Z,99.90
2019-03-11T09:04:30.113Z,99.90
2019-03-11T09:06:59.486Z,99.90
2019-03-11T09:09:28.669Z,99.90
2019-03-11T09:11:58.461Z,99.90
2019-03-11T09:14:27.663Z,99.90
2019-03-11T09:16:57.861Z,99.90
2019-03-11T09:19:28.257Z,99.90
2019-03-11T09:21:57.795Z,99.90
2019-03-11T09:24:26.973Z,99.90
2019-03-11T09:26:56.439Z,99.90
2019-03-11T09:29:25.620Z,99.90
2019-03-11T09:31:54.894Z,99.90
2019-03-11T09:34:24.157Z,99.90
2019-03-11T09:36:53.336Z,99.90
2019-03-11T09:39:27.932Z,99.90
2019-03-11T09:41:57.943Z,99.90
2019-03-11T09:44:28.700Z,99.90
2019-03-11T09:47:01.753Z,99.90
2019-03-11T09:49:31.120Z,99.90
2019-03-11T09:52:01.445Z,99.90
2019-03-11T09:54:32.813Z,99.90
2019-03-11T09:57:02.537Z,99.90
2019-03-11T09:59:31.837Z,99.90
2019-03-11T10:02:03.153Z,99.90
2019-03-11T10:04:32.134Z,99.90
2019-03-11T10:07:01.405Z,99.90
2019-03-11T10:09:30.644Z,99.90
2019-03-11T10:11:59.777Z,99.40
2019-03-11T10:14:28.917Z,99.10
2019-03-11T10:16:59.883Z,98.40
2019-03-11T10:19:29.059Z,98.80
2019-03-11T10:21:58.821Z,98.30
2019-03-11T10:24:27.948Z,97.60
2019-03-11T10:26:57.325Z,97.20
2019-03-11T10:29:26.846Z,95.80
2019-03-11T10:31:56.052Z,95.50
2019-03-11T10:34:25.475Z,96.00
2019-03-11T10:36:55.539Z,97.10
2019-03-11T10:39:24.886Z,98.90
2019-03-11T10:41:56.425Z,98.30
2019-03-11T10:44:26.879Z,99.40
2019-03-11T10:46:58.379Z,98.40
2019-03-11T10:49:27.623Z,96.60
2019-03-11T10:51:57.176Z,96.00
2019-03-11T10:54:26.304Z,96.00
2019-03-11T10:56:55.448Z,95.40
2019-03-11T10:59:25.760Z,95.10
2019-03-11T11:01:55.203Z,96.70
2019-03-11T11:04:25.751Z,94.30
2019-03-11T11:06:55.045Z,94.00
2019-03-11T11:09:24.297Z,95.70
2019-03-11T11:11:53.512Z,95.30
2019-03-11T11:14:22.687Z,95.90
2019-03-11T11:16:51.965Z,92.30
2019-03-11T11:19:21.381Z,92.80
2019-03-11T11:21:50.570Z,93.80
2019-03-11T11:24:19.775Z,93.70
2019-03-11T11:26:48.899Z,92.90
2019-03-11T11:29:18.016Z,93.10
2019-03-11T11:31:47.208Z,93.40
2019-03-11T11:34:16.368Z,99.10
2019-03-11T11:36:45.589Z,99.90
2019-03-11T11:39:16.312Z,99.90
2019-03-11T11:41:46.892Z,99.90
2019-03-11T11:44:16.062Z,99.90
2019-03-11T11:46:46.280Z,99.90
2019-03-11T11:49:16.175Z,99.90
2019-03-11T11:51:45.467Z,99.90
2019-03-11T11:54:14.680Z,99.90
2019-03-11T11:56:43.826Z,99.90
2019-03-11T11:59:12.957Z,99.70
2019-03-11T12:01:42.163Z,97.30
2019-03-11T12:04:13.530Z,94.90
2019-03-11T12:06:42.945Z,96.30
2019-03-11T12:09:12.144Z,96.40
2019-03-11T12:11:41.365Z,94.10
2019-03-11T12:14:12.740Z,91.50
2019-03-11T12:16:41.999Z,91.20
2019-03-11T12:19:13.242Z,90.70
2019-03-11T12:21:42.198Z,92.50
2019-03-11T12:24:11.445Z,92.10
2019-03-11T12:26:40.794Z,92.50
2019-03-11T12:29:10.171Z,94.10
2019-03-11T12:31:39.360Z,94.90
2019-03-11T12:34:11.623Z,98.00
2019-03-11T12:36:41.036Z,98.90
2019-03-11T12:39:12.745Z,99.90
2019-03-11T12:41:42.239Z,99.90
2019-03-11T12:44:11.369Z,99.90
2019-03-11T12:46:40.500Z,99.90
2019-03-11T12:49:09.691Z,99.90
2019-03-11T12:51:49.217Z,99.90
2019-03-11T12:54:09.759Z,99.90
2019-03-11T12:56:39.884Z,98.40
2019-03-11T12:59:09.187Z,96.70
2019-03-11T13:01:57.235Z,97.80
2019-03-11T13:04:27.376Z,97.40
2019-03-11T13:06:56.693Z,97.10
2019-03-11T13:09:25.915Z,96.90
2019-03-11T13:11:55.122Z,96.20
2019-03-11T13:14:24.330Z,96.40
2019-03-11T13:16:53.726Z,97.90
2019-03-11T13:19:23.994Z,99.90
2019-03-11T13:21:54.768Z,99.20
2019-03-11T13:24:24.104Z,99.90
2019-03-11T13:26:54.275Z,99.30
2019-03-11T13:29:23.457Z,98.80
2019-03-11T13:31:52.690Z,96.00
2019-03-11T13:34:21.833Z,93.90
2019-03-11T13:36:51.374Z,93.70
2019-03-11T13:39:21.566Z,93.20
2019-03-11T13:41:53.196Z,93.40
2019-03-11T13:44:23.321Z,93.90
2019-03-11T13:46:52.477Z,93.40
2019-03-11T13:49:21.781Z,95.10
2019-03-11T13:51:50.916Z,99.10
2019-03-11T13:54:20.013Z,99.90
2019-03-11T13:56:49.527Z,99.90
2019-03-11T13:59:18.715Z,99.90
2019-03-11T14:01:47.899Z,99.90
2019-03-11T14:04:17.312Z,99.90
2019-03-11T14:06:46.546Z,99.90
2019-03-11T14:09:15.752Z,99.90
2019-03-11T14:11:44.914Z,99.90
2019-03-11T14:14:14.147Z,99.90
2019-03-11T14:16:43.355Z,99.90
2019-03-11T14:19:13.037Z,99.90
2019-03-11T14:21:42.313Z,99.90
2019-03-11T14:24:11.476Z,99.90
2019-03-11T14:26:40.720Z,99.90
2019-03-11T14:29:10.151Z,99.90
2019-03-11T14:31:39.384Z,99.90
2019-03-11T14:34:08.567Z,99.90
2019-03-11T14:36:37.776Z,99.90
2019-03-11T14:39:10.321Z,99.90
2019-03-11T14:41:39.700Z,99.90
2019-03-11T14:44:08.855Z,99.90
2019-03-11T14:46:38.041Z,99.90
2019-03-11T14:49:08.203Z,99.90
2019-03-11T14:51:38.562Z,99.90
2019-03-11T14:54:07.843Z,99.90
2019-03-11T14:56:37.108Z,99.90
2019-03-11T14:59:08.719Z,99.90
2019-03-11T15:01:37.942Z,99.90
2019-03-11T15:04:08.367Z,99.90
2019-03-11T15:06:37.527Z,99.90
2019-03-11T15:09:07.314Z,99.90
2019-03-11T15:11:36.460Z,99.90
2019-03-11T15:14:05.843Z,99.90
2019-03-11T15:16:35.084Z,99.90
2019-03-11T15:19:04.328Z,99.90
2019-03-11T15:21:35.911Z,99.90
2019-03-11T15:24:05.118Z,99.90
2019-03-11T15:26:35.780Z,99.90
2019-03-11T15:29:06.448Z,99.90
2019-03-11T15:31:37.097Z,99.90
2019-03-11T15:34:07.589Z,99.90
2019-03-11T15:36:37.089Z,99.90
2019-03-11T15:39:06.820Z,99.90
2019-03-11T15:41:36.091Z,99.90
2019-03-11T15:44:05.573Z,99.90
2019-03-11T15:46:39.294Z,99.90
2019-03-11T15:49:05.744Z,99.90
2019-03-11T15:51:37.207Z,99.90
2019-03-11T15:54:06.419Z,99.90
2019-03-11T15:56:35.775Z,99.90
2019-03-11T15:59:04.916Z,99.90
2019-03-11T16:01:35.780Z,99.90
2019-03-11T16:04:05.001Z,99.90
2019-03-11T16:06:34.149Z,99.90
2019-03-11T16:09:03.693Z,99.90
2019-03-11T16:11:33.150Z,99.90
2019-03-11T16:14:02.359Z,99.90
2019-03-11T16:16:32.530Z,99.90
2019-03-11T16:19:01.896Z,99.90
2019-03-11T16:21:31.320Z,99.90
2019-03-11T16:24:00.619Z,99.90
2019-03-11T16:26:30.108Z,99.90
2019-03-11T16:28:59.332Z,99.90
2019-03-11T16:31:29.013Z,99.90
2019-03-11T16:33:58.320Z,99.90
2019-03-11T16:36:27.521Z,99.90
2019-03-11T16:38:56.646Z,99.90
2019-03-11T16:41:25.824Z,99.90
2019-03-11T16:44:02.743Z,99.90
2019-03-11T16:53:25.748Z,99.90
2019-03-11T16:56:48.886Z,99.90
2019-03-11T16:59:19.455Z,99.90
2019-03-11T17:02:27.130Z,99.90
2019-03-11T17:04:56.903Z,99.90
2019-03-11T17:07:26.388Z,99.90
2019-03-11T17:09:59.900Z,99.90
2019-03-11T17:12:29.180Z,99.90
2019-03-11T17:15:01.781Z,99.90
2019-03-11T17:17:32.076Z,99.90
2019-03-11T17:20:01.284Z,99.90
2019-03-11T17:22:34.923Z,99.90
2019-03-11T17:25:09.444Z,99.90
2019-03-11T17:28:03.700Z,99.90
2019-03-11T17:30:38.045Z,99.90
2019-03-11T17:33:07.507Z,99.90
2019-03-11T17:35:47.070Z,99.90
2019-03-11T17:38:29.359Z,99.90
2019-03-11T17:41:01.548Z,99.90
2019-03-11T17:43:33.423Z,99.90
2019-03-11T17:46:08.132Z,99.90
2019-03-11T17:48:37.404Z,99.90
2019-03-11T17:51:06.615Z,99.90
2019-03-11T17:53:36.980Z,99.90
2019-03-11T17:56:07.745Z,99.90
2019-03-11T17:58:38.010Z,99.90
2019-03-11T18:01:11.210Z,99.90
2019-03-11T18:04:07.791Z,99.90
2019-03-11T18:06:37.874Z,99.90
2019-03-11T18:09:09.669Z,99.90
2019-03-11T18:11:39.928Z,99.90
2019-03-11T18:14:13.784Z,99.90
2019-03-11T18:17:56.908Z,99.90
2019-03-11T18:20:26.175Z,99.90
2019-03-11T18:23:29.773Z,99.90
2019-03-11T18:25:59.037Z,99.90
2019-03-11T18:32:21.848Z,99.90
2019-03-11T18:38:19.937Z,99.90
2019-03-11T18:40:54.329Z,99.90
2019-03-11T18:43:23.406Z,99.90
2019-03-11T18:45:53.812Z,99.90
2019-03-11T18:52:37.671Z,99.90
2019-03-11T18:55:08.327Z,99.90
2019-03-11T18:57:41.638Z,99.90
2019-03-11T19:00:19.398Z,99.90
2019-03-11T19:02:51.765Z,99.90
2019-03-11T19:05:35.239Z,99.90
2019-03-11T19:08:07.796Z,99.90
2019-03-11T19:10:40.478Z,99.90
2019-03-11T19:13:13.449Z,99.90
2019-03-11T19:17:31.529Z,99.90
2019-03-11T19:19:16.198Z,99.90
2019-03-11T19:21:45.642Z,99.90
2019-03-11T19:24:21.903Z,99.90
2019-03-11T19:26:55.784Z,99.90
2019-03-11T19:29:25.404Z,99.90
2019-03-11T19:31:55.217Z,99.90
2019-03-11T19:34:25.509Z,99.90
2019-03-11T19:36:55.199Z,99.90
2019-03-11T19:39:24.543Z,99.90
2019-03-11T19:41:59.367Z,99.90
2019-03-11T19:44:29.609Z,99.90
2019-03-11T19:50:44.102Z,99.90
2019-03-11T19:53:20.217Z,99.90
2019-03-11T19:55:50.494Z,99.90
2019-03-11T19:58:24.201Z,99.90
2019-03-11T20:00:56.202Z,99.90
2019-03-11T20:03:30.345Z,99.90
2019-03-11T20:06:15.900Z,99.90
2019-03-11T20:08:48.453Z,99.90
2019-03-11T20:11:18.054Z,99.90
2019-03-11T20:13:48.948Z,99.90
2019-03-11T20:16:20.945Z,99.90
2019-03-11T20:18:50.177Z,99.90
2019-03-11T20:21:32.237Z,99.90
2019-03-11T20:24:01.522Z,99.90
2019-03-11T20:26:31.950Z,99.90
2019-03-11T20:29:15.004Z,99.90
2019-03-11T20:31:44.651Z,99.90
2019-03-11T20:34:14.048Z,99.90
2019-03-11T20:36:54.082Z,99.90
2019-03-11T20:39:25.401Z,99.90
2019-03-11T20:42:03.353Z,99.90
2019-03-11T20:44:56.125Z,99.90
2019-03-11T20:47:50.086Z,99.90
2019-03-11T20:50:46.025Z,99.90
2019-03-11T20:53:23.628Z,99.90
2019-03-11T21:06:29.615Z,99.90
2019-03-11T21:09:05.509Z,99.90
2019-03-11T21:11:39.789Z,99.90
2019-03-11T21:14:16.622Z,99.90
2019-03-11T21:16:53.944Z,99.90
2019-03-11T21:19:31.121Z,99.90
2019-03-11T21:22:05.301Z,99.90
2019-03-11T21:24:37.997Z,99.90
2019-03-11T21:27:11.962Z,99.90
2019-03-11T21:33:41.018Z,99.90
2019-03-11T21:49:26.127Z,99.90
2019-03-11T21:51:59.668Z,99.90
2019-03-11T21:54:28.868Z,99.90
2019-03-11T21:56:59.451Z,99.90
2019-03-11T21:59:36.685Z,99.90
2019-03-11T22:20:08.428Z,99.90
2019-03-11T22:26:41.608Z,99.90
2019-03-11T22:29:52.939Z,99.90
2019-03-11T22:40:51.578Z,99.90
